sensor_id;sensor_type;location;lat;lon;timestamp;P1;durP1;ratioP1;P2;durP2;ratioP2
61741;SDS011;47650;49.848;9.620;2024-01-06T00:00:28;23.75;;;12.82;;
61741;SDS011;47650;49.848;9.620;2024-01-06T00:02:53;17.33;;;11.25;;
61741;SDS011;47650;49.848;9.620;2024-01-06T00:05:20;20.30;;;11.35;;
61741;SDS011;47650;49.848;9.620;2024-01-06T00:07:45;20.95;;;10.85;;
61741;SDS011;47650;49.848;9.620;2024-01-06T00:10:11;21.42;;;13.77;;
61741;SDS011;47650;49.848;9.620;2024-01-06T00:12:37;24.13;;;13.73;;
61741;SDS011;47650;49.848;9.620;2024-01-06T00:15:02;21.67;;;12.75;;
61741;SDS011;47650;49.848;9.620;2024-01-06T00:17:28;17.95;;;11.25;;
61741;SDS011;47650;49.848;9.620;2024-01-06T00:19:54;24.42;;;15.77;;
61741;SDS011;47650;49.848;9.620;2024-01-06T00:22:20;26.25;;;16.80;;
61741;SDS011;47650;49.848;9.620;2024-01-06T00:24:46;26.50;;;15.05;;
61741;SDS011;47650;49.848;9.620;2024-01-06T00:27:11;22.00;;;14.35;;
61741;SDS011;47650;49.848;9.620;2024-01-06T00:29:37;30.77;;;18.50;;
61741;SDS011;47650;49.848;9.620;2024-01-06T00:32:02;23.30;;;15.75;;
61741;SDS011;47650;49.848;9.620;2024-01-06T00:34:28;24.27;;;14.85;;
61741;SDS011;47650;49.848;9.620;2024-01-06T00:36:53;30.88;;;20.58;;
61741;SDS011;47650;49.848;9.620;2024-01-06T00:39:19;29.02;;;18.67;;
61741;SDS011;47650;49.848;9.620;2024-01-06T00:41:45;29.63;;;17.17;;
61741;SDS011;47650;49.848;9.620;2024-01-06T00:44:11;32.55;;;21.17;;
61741;SDS011;47650;49.848;9.620;2024-01-06T00:46:36;39.47;;;25.30;;
61741;SDS011;47650;49.848;9.620;2024-01-06T00:49:03;36.53;;;22.88;;
61741;SDS011;47650;49.848;9.620;2024-01-06T00:51:28;23.58;;;15.48;;
61741;SDS011;47650;49.848;9.620;2024-01-06T00:53:54;32.70;;;18.85;;
61741;SDS011;47650;49.848;9.620;2024-01-06T00:56:21;25.95;;;15.98;;
61741;SDS011;47650;49.848;9.620;2024-01-06T00:58:46;23.80;;;14.77;;
61741;SDS011;47650;49.848;9.620;2024-01-06T01:01:11;16.77;;;12.10;;
61741;SDS011;47650;49.848;9.620;2024-01-06T01:03:37;24.55;;;15.40;;
61741;SDS011;47650;49.848;9.620;2024-01-06T01:06:02;24.38;;;14.25;;
61741;SDS011;47650;49.848;9.620;2024-01-06T01:08:28;30.73;;;20.85;;
61741;SDS011;47650;49.848;9.620;2024-01-06T01:10:55;21.42;;;13.75;;
61741;SDS011;47650;49.848;9.620;2024-01-06T01:13:22;33.03;;;21.50;;
61741;SDS011;47650;49.848;9.620;2024-01-06T01:15:49;28.83;;;19.08;;
61741;SDS011;47650;49.848;9.620;2024-01-06T01:18:14;37.50;;;21.23;;
61741;SDS011;47650;49.848;9.620;2024-01-06T01:20:39;34.05;;;20.75;;
61741;SDS011;47650;49.848;9.620;2024-01-06T01:23:08;31.30;;;18.55;;
61741;SDS011;47650;49.848;9.620;2024-01-06T01:25:33;32.47;;;18.17;;
61741;SDS011;47650;49.848;9.620;2024-01-06T01:27:59;27.35;;;17.55;;
61741;SDS011;47650;49.848;9.620;2024-01-06T01:30:24;21.80;;;13.98;;
61741;SDS011;47650;49.848;9.620;2024-01-06T01:32:50;26.00;;;16.50;;
61741;SDS011;47650;49.848;9.620;2024-01-06T01:35:15;26.08;;;14.50;;
61741;SDS011;47650;49.848;9.620;2024-01-06T01:37:41;19.13;;;12.10;;
61741;SDS011;47650;49.848;9.620;2024-01-06T01:40:06;21.38;;;13.57;;
61741;SDS011;47650;49.848;9.620;2024-01-06T01:42:32;22.00;;;13.07;;
61741;SDS011;47650;49.848;9.620;2024-01-06T01:44:58;23.95;;;15.10;;
61741;SDS011;47650;49.848;9.620;2024-01-06T01:47:23;25.73;;;14.65;;
61741;SDS011;47650;49.848;9.620;2024-01-06T01:49:49;27.80;;;16.70;;
61741;SDS011;47650;49.848;9.620;2024-01-06T01:52:15;23.42;;;12.18;;
61741;SDS011;47650;49.848;9.620;2024-01-06T01:54:41;18.90;;;12.32;;
61741;SDS011;47650;49.848;9.620;2024-01-06T01:57:08;23.65;;;13.57;;
61741;SDS011;47650;49.848;9.620;2024-01-06T01:59:35;19.83;;;11.55;;
61741;SDS011;47650;49.848;9.620;2024-01-06T02:02:01;22.85;;;13.70;;
61741;SDS011;47650;49.848;9.620;2024-01-06T02:04:28;19.67;;;12.27;;
61741;SDS011;47650;49.848;9.620;2024-01-06T02:06:54;27.60;;;14.45;;
61741;SDS011;47650;49.848;9.620;2024-01-06T02:09:20;19.40;;;12.35;;
61741;SDS011;47650;49.848;9.620;2024-01-06T02:11:48;19.08;;;10.02;;
61741;SDS011;47650;49.848;9.620;2024-01-06T02:14:13;26.65;;;10.75;;
61741;SDS011;47650;49.848;9.620;2024-01-06T02:16:39;16.10;;;8.85;;
61741;SDS011;47650;49.848;9.620;2024-01-06T02:19:05;15.45;;;8.35;;
61741;SDS011;47650;49.848;9.620;2024-01-06T02:21:35;21.77;;;9.48;;
61741;SDS011;47650;49.848;9.620;2024-01-06T02:24:05;23.77;;;11.00;;
61741;SDS011;47650;49.848;9.620;2024-01-06T02:26:31;17.45;;;9.25;;
61741;SDS011;47650;49.848;9.620;2024-01-06T02:28:57;17.92;;;8.95;;
61741;SDS011;47650;49.848;9.620;2024-01-06T02:31:23;16.83;;;7.70;;
61741;SDS011;47650;49.848;9.620;2024-01-06T02:33:48;17.45;;;8.13;;
61741;SDS011;47650;49.848;9.620;2024-01-06T02:36:13;15.77;;;8.07;;
61741;SDS011;47650;49.848;9.620;2024-01-06T02:38:39;19.02;;;10.00;;
61741;SDS011;47650;49.848;9.620;2024-01-06T02:41:04;20.20;;;9.55;;
61741;SDS011;47650;49.848;9.620;2024-01-06T02:43:29;17.52;;;10.23;;
61741;SDS011;47650;49.848;9.620;2024-01-06T02:45:55;18.90;;;10.70;;
61741;SDS011;47650;49.848;9.620;2024-01-06T02:48:20;19.60;;;10.75;;
61741;SDS011;47650;49.848;9.620;2024-01-06T02:50:45;19.75;;;12.35;;
61741;SDS011;47650;49.848;9.620;2024-01-06T02:53:11;19.05;;;11.65;;
61741;SDS011;47650;49.848;9.620;2024-01-06T02:55:37;14.77;;;8.57;;
61741;SDS011;47650;49.848;9.620;2024-01-06T02:58:03;15.43;;;10.10;;
61741;SDS011;47650;49.848;9.620;2024-01-06T03:00:29;23.65;;;11.80;;
61741;SDS011;47650;49.848;9.620;2024-01-06T03:02:54;16.00;;;10.98;;
61741;SDS011;47650;49.848;9.620;2024-01-06T03:05:21;31.73;;;18.20;;
61741;SDS011;47650;49.848;9.620;2024-01-06T03:07:46;23.40;;;13.25;;
61741;SDS011;47650;49.848;9.620;2024-01-06T03:10:12;31.30;;;17.70;;
61741;SDS011;47650;49.848;9.620;2024-01-06T03:12:37;30.25;;;18.63;;
61741;SDS011;47650;49.848;9.620;2024-01-06T03:15:02;27.13;;;18.10;;
61741;SDS011;47650;49.848;9.620;2024-01-06T03:17:28;30.92;;;19.08;;
61741;SDS011;47650;49.848;9.620;2024-01-06T03:19:54;26.60;;;17.92;;
61741;SDS011;47650;49.848;9.620;2024-01-06T03:22:19;25.60;;;15.60;;
61741;SDS011;47650;49.848;9.620;2024-01-06T03:24:45;30.63;;;18.35;;
61741;SDS011;47650;49.848;9.620;2024-01-06T03:27:10;35.08;;;19.60;;
61741;SDS011;47650;49.848;9.620;2024-01-06T03:29:37;35.13;;;20.23;;
61741;SDS011;47650;49.848;9.620;2024-01-06T03:32:04;35.75;;;20.80;;
61741;SDS011;47650;49.848;9.620;2024-01-06T03:34:29;33.92;;;19.08;;
61741;SDS011;47650;49.848;9.620;2024-01-06T03:36:55;25.95;;;17.50;;
61741;SDS011;47650;49.848;9.620;2024-01-06T03:39:20;22.63;;;14.63;;
61741;SDS011;47650;49.848;9.620;2024-01-06T03:41:45;22.95;;;15.88;;
61741;SDS011;47650;49.848;9.620;2024-01-06T03:44:11;30.58;;;18.48;;
61741;SDS011;47650;49.848;9.620;2024-01-06T03:46:37;31.67;;;20.02;;
61741;SDS011;47650;49.848;9.620;2024-01-06T03:49:02;24.33;;;15.10;;
61741;SDS011;47650;49.848;9.620;2024-01-06T03:51:28;23.77;;;16.35;;
61741;SDS011;47650;49.848;9.620;2024-01-06T03:53:54;27.98;;;15.25;;
61741;SDS011;47650;49.848;9.620;2024-01-06T03:56:19;31.55;;;19.27;;
61741;SDS011;47650;49.848;9.620;2024-01-06T03:58:44;19.80;;;13.90;;
61741;SDS011;47650;49.848;9.620;2024-01-06T04:01:10;21.02;;;13.85;;
61741;SDS011;47650;49.848;9.620;2024-01-06T04:03:35;21.38;;;11.10;;
61741;SDS011;47650;49.848;9.620;2024-01-06T04:06:01;25.85;;;15.30;;
61741;SDS011;47650;49.848;9.620;2024-01-06T04:08:26;24.98;;;15.13;;
61741;SDS011;47650;49.848;9.620;2024-01-06T04:10:52;30.77;;;19.58;;
61741;SDS011;47650;49.848;9.620;2024-01-06T04:13:19;33.45;;;19.15;;
61741;SDS011;47650;49.848;9.620;2024-01-06T04:15:45;27.52;;;17.58;;
61741;SDS011;47650;49.848;9.620;2024-01-06T04:18:11;22.40;;;15.15;;
61741;SDS011;47650;49.848;9.620;2024-01-06T04:20:37;29.08;;;17.35;;
61741;SDS011;47650;49.848;9.620;2024-01-06T04:23:03;24.50;;;15.32;;
61741;SDS011;47650;49.848;9.620;2024-01-06T04:25:29;23.85;;;15.30;;
61741;SDS011;47650;49.848;9.620;2024-01-06T04:27:54;27.08;;;15.63;;
61741;SDS011;47650;49.848;9.620;2024-01-06T04:30:19;19.00;;;13.38;;
61741;SDS011;47650;49.848;9.620;2024-01-06T04:32:45;31.73;;;17.02;;
61741;SDS011;47650;49.848;9.620;2024-01-06T04:35:13;24.05;;;15.20;;
61741;SDS011;47650;49.848;9.620;2024-01-06T04:37:39;32.53;;;19.02;;
61741;SDS011;47650;49.848;9.620;2024-01-06T04:40:05;24.58;;;15.43;;
61741;SDS011;47650;49.848;9.620;2024-01-06T04:42:32;23.80;;;14.25;;
61741;SDS011;47650;49.848;9.620;2024-01-06T04:44:58;29.88;;;17.27;;
61741;SDS011;47650;49.848;9.620;2024-01-06T04:47:23;18.00;;;11.90;;
61741;SDS011;47650;49.848;9.620;2024-01-06T04:49:49;21.67;;;12.63;;
61741;SDS011;47650;49.848;9.620;2024-01-06T04:52:15;20.50;;;13.27;;
61741;SDS011;47650;49.848;9.620;2024-01-06T04:54:40;24.85;;;14.38;;
61741;SDS011;47650;49.848;9.620;2024-01-06T04:57:06;22.80;;;15.07;;
61741;SDS011;47650;49.848;9.620;2024-01-06T04:59:31;25.70;;;14.82;;
61741;SDS011;47650;49.848;9.620;2024-01-06T05:01:59;22.73;;;14.10;;
61741;SDS011;47650;49.848;9.620;2024-01-06T05:04:25;28.80;;;17.58;;
61741;SDS011;47650;49.848;9.620;2024-01-06T05:06:53;20.75;;;13.18;;
61741;SDS011;47650;49.848;9.620;2024-01-06T05:09:19;26.17;;;15.80;;
61741;SDS011;47650;49.848;9.620;2024-01-06T05:11:44;27.42;;;16.98;;
61741;SDS011;47650;49.848;9.620;2024-01-06T05:14:10;23.63;;;14.75;;
61741;SDS011;47650;49.848;9.620;2024-01-06T05:16:36;22.33;;;15.18;;
61741;SDS011;47650;49.848;9.620;2024-01-06T05:19:01;20.85;;;13.57;;
61741;SDS011;47650;49.848;9.620;2024-01-06T05:21:27;20.27;;;12.02;;
61741;SDS011;47650;49.848;9.620;2024-01-06T05:23:53;24.77;;;13.98;;
61741;SDS011;47650;49.848;9.620;2024-01-06T05:26:18;29.02;;;16.83;;
61741;SDS011;47650;49.848;9.620;2024-01-06T05:28:44;24.80;;;14.80;;
61741;SDS011;47650;49.848;9.620;2024-01-06T05:31:10;33.78;;;16.85;;
61741;SDS011;47650;49.848;9.620;2024-01-06T05:33:35;29.55;;;15.80;;
61741;SDS011;47650;49.848;9.620;2024-01-06T05:36:04;22.73;;;12.30;;
61741;SDS011;47650;49.848;9.620;2024-01-06T05:38:29;23.55;;;12.90;;
61741;SDS011;47650;49.848;9.620;2024-01-06T05:40:55;19.58;;;11.60;;
61741;SDS011;47650;49.848;9.620;2024-01-06T05:43:21;15.35;;;11.13;;
61741;SDS011;47650;49.848;9.620;2024-01-06T05:45:47;13.88;;;10.00;;
61741;SDS011;47650;49.848;9.620;2024-01-06T05:48:12;15.32;;;10.07;;
61741;SDS011;47650;49.848;9.620;2024-01-06T05:50:38;17.40;;;10.65;;
61741;SDS011;47650;49.848;9.620;2024-01-06T05:53:07;18.13;;;11.32;;
61741;SDS011;47650;49.848;9.620;2024-01-06T05:55:32;17.02;;;11.40;;
61741;SDS011;47650;49.848;9.620;2024-01-06T05:57:58;13.60;;;10.20;;
61741;SDS011;47650;49.848;9.620;2024-01-06T06:00:23;18.13;;;13.07;;
61741;SDS011;47650;49.848;9.620;2024-01-06T06:02:49;17.90;;;11.98;;
61741;SDS011;47650;49.848;9.620;2024-01-06T06:05:14;20.98;;;11.48;;
61741;SDS011;47650;49.848;9.620;2024-01-06T06:07:40;14.57;;;8.63;;
61741;SDS011;47650;49.848;9.620;2024-01-06T06:10:09;18.58;;;11.63;;
61741;SDS011;47650;49.848;9.620;2024-01-06T06:12:36;21.35;;;13.95;;
61741;SDS011;47650;49.848;9.620;2024-01-06T06:15:02;16.90;;;11.02;;
61741;SDS011;47650;49.848;9.620;2024-01-06T06:17:29;21.52;;;13.48;;
61741;SDS011;47650;49.848;9.620;2024-01-06T06:19:59;19.52;;;13.13;;
61741;SDS011;47650;49.848;9.620;2024-01-06T06:22:26;13.55;;;10.18;;
61741;SDS011;47650;49.848;9.620;2024-01-06T06:24:59;19.77;;;12.45;;
61741;SDS011;47650;49.848;9.620;2024-01-06T06:27:26;19.88;;;12.15;;
61741;SDS011;47650;49.848;9.620;2024-01-06T06:29:52;19.17;;;12.25;;
61741;SDS011;47650;49.848;9.620;2024-01-06T06:32:18;26.58;;;15.55;;
61741;SDS011;47650;49.848;9.620;2024-01-06T06:34:45;22.83;;;14.77;;
61741;SDS011;47650;49.848;9.620;2024-01-06T06:37:11;20.35;;;13.65;;
61741;SDS011;47650;49.848;9.620;2024-01-06T06:39:38;16.40;;;11.63;;
61741;SDS011;47650;49.848;9.620;2024-01-06T06:42:03;18.80;;;11.07;;
61741;SDS011;47650;49.848;9.620;2024-01-06T06:44:29;15.30;;;9.40;;
61741;SDS011;47650;49.848;9.620;2024-01-06T06:46:55;13.05;;;9.75;;
61741;SDS011;47650;49.848;9.620;2024-01-06T06:49:21;15.07;;;9.82;;
61741;SDS011;47650;49.848;9.620;2024-01-06T06:51:47;17.55;;;9.45;;
61741;SDS011;47650;49.848;9.620;2024-01-06T06:54:13;16.58;;;8.98;;
61741;SDS011;47650;49.848;9.620;2024-01-06T06:56:40;12.10;;;8.30;;
61741;SDS011;47650;49.848;9.620;2024-01-06T06:59:06;14.73;;;10.27;;
61741;SDS011;47650;49.848;9.620;2024-01-06T07:01:31;17.45;;;10.82;;
61741;SDS011;47650;49.848;9.620;2024-01-06T07:03:57;17.55;;;10.65;;
61741;SDS011;47650;49.848;9.620;2024-01-06T07:06:22;14.48;;;9.77;;
61741;SDS011;47650;49.848;9.620;2024-01-06T07:08:47;14.23;;;10.15;;
61741;SDS011;47650;49.848;9.620;2024-01-06T07:11:13;18.20;;;11.38;;
61741;SDS011;47650;49.848;9.620;2024-01-06T07:13:40;23.05;;;16.40;;
61741;SDS011;47650;49.848;9.620;2024-01-06T07:16:05;20.60;;;11.65;;
61741;SDS011;47650;49.848;9.620;2024-01-06T07:18:31;15.73;;;11.47;;
61741;SDS011;47650;49.848;9.620;2024-01-06T07:20:57;17.13;;;11.00;;
61741;SDS011;47650;49.848;9.620;2024-01-06T07:23:22;20.60;;;12.27;;
61741;SDS011;47650;49.848;9.620;2024-01-06T07:25:47;18.27;;;10.70;;
61741;SDS011;47650;49.848;9.620;2024-01-06T07:28:14;14.60;;;9.57;;
61741;SDS011;47650;49.848;9.620;2024-01-06T07:30:40;14.05;;;10.00;;
61741;SDS011;47650;49.848;9.620;2024-01-06T07:33:05;14.10;;;8.65;;
61741;SDS011;47650;49.848;9.620;2024-01-06T07:35:31;16.40;;;10.02;;
61741;SDS011;47650;49.848;9.620;2024-01-06T07:37:56;16.48;;;9.25;;
61741;SDS011;47650;49.848;9.620;2024-01-06T07:40:22;15.40;;;9.48;;
61741;SDS011;47650;49.848;9.620;2024-01-06T07:42:48;14.50;;;9.60;;
61741;SDS011;47650;49.848;9.620;2024-01-06T07:45:16;13.25;;;9.18;;
61741;SDS011;47650;49.848;9.620;2024-01-06T07:47:42;13.85;;;8.90;;
61741;SDS011;47650;49.848;9.620;2024-01-06T07:50:07;12.55;;;8.07;;
61741;SDS011;47650;49.848;9.620;2024-01-06T07:52:33;14.27;;;9.73;;
61741;SDS011;47650;49.848;9.620;2024-01-06T07:54:59;15.57;;;11.13;;
61741;SDS011;47650;49.848;9.620;2024-01-06T07:57:24;14.73;;;10.32;;
61741;SDS011;47650;49.848;9.620;2024-01-06T07:59:50;9.73;;;7.05;;
61741;SDS011;47650;49.848;9.620;2024-01-06T08:02:16;13.15;;;7.05;;
61741;SDS011;47650;49.848;9.620;2024-01-06T08:04:42;10.18;;;6.85;;
61741;SDS011;47650;49.848;9.620;2024-01-06T08:07:07;11.68;;;7.35;;
61741;SDS011;47650;49.848;9.620;2024-01-06T08:09:33;13.18;;;8.85;;
61741;SDS011;47650;49.848;9.620;2024-01-06T08:11:58;14.23;;;7.85;;
61741;SDS011;47650;49.848;9.620;2024-01-06T08:14:24;11.82;;;7.88;;
61741;SDS011;47650;49.848;9.620;2024-01-06T08:16:49;12.63;;;8.98;;
61741;SDS011;47650;49.848;9.620;2024-01-06T08:19:14;13.32;;;9.35;;
61741;SDS011;47650;49.848;9.620;2024-01-06T08:21:40;11.35;;;7.97;;
61741;SDS011;47650;49.848;9.620;2024-01-06T08:24:05;11.00;;;7.82;;
61741;SDS011;47650;49.848;9.620;2024-01-06T08:26:31;14.82;;;12.30;;
61741;SDS011;47650;49.848;9.620;2024-01-06T08:28:56;16.05;;;11.70;;
61741;SDS011;47650;49.848;9.620;2024-01-06T08:31:21;17.08;;;12.00;;
61741;SDS011;47650;49.848;9.620;2024-01-06T08:33:48;16.33;;;9.80;;
61741;SDS011;47650;49.848;9.620;2024-01-06T08:36:14;17.42;;;12.52;;
61741;SDS011;47650;49.848;9.620;2024-01-06T08:38:40;13.57;;;10.48;;
61741;SDS011;47650;49.848;9.620;2024-01-06T08:41:05;15.93;;;12.20;;
61741;SDS011;47650;49.848;9.620;2024-01-06T08:43:30;12.82;;;9.40;;
61741;SDS011;47650;49.848;9.620;2024-01-06T08:45:56;13.73;;;8.38;;
61741;SDS011;47650;49.848;9.620;2024-01-06T08:48:22;10.93;;;8.32;;
61741;SDS011;47650;49.848;9.620;2024-01-06T08:50:48;10.10;;;7.93;;
61741;SDS011;47650;49.848;9.620;2024-01-06T08:53:13;20.95;;;11.55;;
61741;SDS011;47650;49.848;9.620;2024-01-06T08:55:39;12.68;;;8.23;;
61741;SDS011;47650;49.848;9.620;2024-01-06T08:58:04;14.13;;;9.05;;
61741;SDS011;47650;49.848;9.620;2024-01-06T09:00:30;15.00;;;8.68;;
61741;SDS011;47650;49.848;9.620;2024-01-06T09:02:58;11.73;;;8.98;;
61741;SDS011;47650;49.848;9.620;2024-01-06T09:05:23;13.35;;;8.20;;
61741;SDS011;47650;49.848;9.620;2024-01-06T09:07:49;11.10;;;7.25;;
61741;SDS011;47650;49.848;9.620;2024-01-06T09:10:16;11.52;;;8.20;;
61741;SDS011;47650;49.848;9.620;2024-01-06T09:12:43;12.15;;;7.05;;
61741;SDS011;47650;49.848;9.620;2024-01-06T09:15:08;9.35;;;7.57;;
61741;SDS011;47650;49.848;9.620;2024-01-06T09:17:34;14.70;;;7.47;;
61741;SDS011;47650;49.848;9.620;2024-01-06T09:20:00;9.60;;;6.93;;
61741;SDS011;47650;49.848;9.620;2024-01-06T09:22:26;10.93;;;7.75;;
61741;SDS011;47650;49.848;9.620;2024-01-06T09:24:52;10.38;;;7.80;;
61741;SDS011;47650;49.848;9.620;2024-01-06T09:27:17;10.23;;;7.13;;
61741;SDS011;47650;49.848;9.620;2024-01-06T09:29:43;10.38;;;7.28;;
61741;SDS011;47650;49.848;9.620;2024-01-06T09:32:09;12.00;;;6.55;;
61741;SDS011;47650;49.848;9.620;2024-01-06T09:34:34;16.60;;;7.90;;
61741;SDS011;47650;49.848;9.620;2024-01-06T09:37:01;11.98;;;7.15;;
61741;SDS011;47650;49.848;9.620;2024-01-06T09:39:26;12.07;;;7.70;;
61741;SDS011;47650;49.848;9.620;2024-01-06T09:41:51;10.95;;;7.70;;
61741;SDS011;47650;49.848;9.620;2024-01-06T09:44:17;11.57;;;7.35;;
61741;SDS011;47650;49.848;9.620;2024-01-06T09:46:43;10.48;;;6.93;;
61741;SDS011;47650;49.848;9.620;2024-01-06T09:49:09;10.52;;;7.93;;
61741;SDS011;47650;49.848;9.620;2024-01-06T09:51:39;8.70;;;6.57;;
61741;SDS011;47650;49.848;9.620;2024-01-06T09:54:04;9.63;;;6.10;;
61741;SDS011;47650;49.848;9.620;2024-01-06T09:56:34;9.65;;;7.28;;
61741;SDS011;47650;49.848;9.620;2024-01-06T09:59:00;8.80;;;6.82;;
61741;SDS011;47650;49.848;9.620;2024-01-06T10:01:26;12.13;;;7.75;;
61741;SDS011;47650;49.848;9.620;2024-01-06T10:03:52;14.23;;;7.95;;
61741;SDS011;47650;49.848;9.620;2024-01-06T10:06:18;12.88;;;7.53;;
61741;SDS011;47650;49.848;9.620;2024-01-06T10:08:48;10.88;;;6.68;;
61741;SDS011;47650;49.848;9.620;2024-01-06T10:11:14;10.82;;;6.75;;
61741;SDS011;47650;49.848;9.620;2024-01-06T10:13:40;14.38;;;8.43;;
61741;SDS011;47650;49.848;9.620;2024-01-06T10:16:06;13.32;;;7.57;;
61741;SDS011;47650;49.848;9.620;2024-01-06T10:18:32;10.85;;;7.13;;
61741;SDS011;47650;49.848;9.620;2024-01-06T10:20:58;10.30;;;6.82;;
61741;SDS011;47650;49.848;9.620;2024-01-06T10:23:28;9.93;;;7.57;;
61741;SDS011;47650;49.848;9.620;2024-01-06T10:25:54;14.43;;;9.40;;
61741;SDS011;47650;49.848;9.620;2024-01-06T10:30:47;11.98;;;8.50;;
61741;SDS011;47650;49.848;9.620;2024-01-06T10:33:13;9.75;;;6.80;;
61741;SDS011;47650;49.848;9.620;2024-01-06T10:35:39;9.27;;;7.40;;
61741;SDS011;47650;49.848;9.620;2024-01-06T10:38:04;9.55;;;7.03;;
61741;SDS011;47650;49.848;9.620;2024-01-06T10:40:31;10.98;;;6.18;;
61741;SDS011;47650;49.848;9.620;2024-01-06T10:42:56;10.80;;;6.82;;
61741;SDS011;47650;49.848;9.620;2024-01-06T10:45:22;9.77;;;6.78;;
61741;SDS011;47650;49.848;9.620;2024-01-06T10:47:49;9.40;;;6.47;;
61741;SDS011;47650;49.848;9.620;2024-01-06T10:50:17;9.88;;;7.15;;
61741;SDS011;47650;49.848;9.620;2024-01-06T10:52:43;9.52;;;6.05;;
61741;SDS011;47650;49.848;9.620;2024-01-06T10:55:10;12.77;;;7.25;;
61741;SDS011;47650;49.848;9.620;2024-01-06T10:57:40;10.27;;;6.43;;
61741;SDS011;47650;49.848;9.620;2024-01-06T11:00:08;10.68;;;6.63;;
61741;SDS011;47650;49.848;9.620;2024-01-06T11:02:35;9.52;;;7.13;;
61741;SDS011;47650;49.848;9.620;2024-01-06T11:05:00;10.50;;;7.57;;
61741;SDS011;47650;49.848;9.620;2024-01-06T11:07:26;11.57;;;7.75;;
61741;SDS011;47650;49.848;9.620;2024-01-06T11:09:57;12.75;;;8.20;;
61741;SDS011;47650;49.848;9.620;2024-01-06T11:12:24;10.68;;;7.20;;
61741;SDS011;47650;49.848;9.620;2024-01-06T11:14:51;9.85;;;7.10;;
61741;SDS011;47650;49.848;9.620;2024-01-06T11:20:19;9.05;;;5.65;;
61741;SDS011;47650;49.848;9.620;2024-01-06T11:22:46;15.32;;;6.32;;
61741;SDS011;47650;49.848;9.620;2024-01-06T11:25:13;8.85;;;5.53;;
61741;SDS011;47650;49.848;9.620;2024-01-06T11:27:41;8.55;;;5.70;;
61741;SDS011;47650;49.848;9.620;2024-01-06T11:30:07;11.73;;;6.68;;
61741;SDS011;47650;49.848;9.620;2024-01-06T11:32:43;10.60;;;6.50;;
61741;SDS011;47650;49.848;9.620;2024-01-06T11:35:12;11.23;;;7.10;;
61741;SDS011;47650;49.848;9.620;2024-01-06T11:42:56;11.68;;;8.35;;
61741;SDS011;47650;49.848;9.620;2024-01-06T11:45:27;13.25;;;8.27;;
61741;SDS011;47650;49.848;9.620;2024-01-06T11:47:54;10.18;;;6.70;;
61741;SDS011;47650;49.848;9.620;2024-01-06T11:50:25;11.55;;;6.85;;
61741;SDS011;47650;49.848;9.620;2024-01-06T11:52:52;6.63;;;3.38;;
61741;SDS011;47650;49.848;9.620;2024-01-06T11:55:18;4.75;;;2.70;;
61741;SDS011;47650;49.848;9.620;2024-01-06T11:57:45;6.15;;;2.35;;
61741;SDS011;47650;49.848;9.620;2024-01-06T12:00:11;5.85;;;2.50;;
61741;SDS011;47650;49.848;9.620;2024-01-06T12:02:39;4.75;;;2.60;;
61741;SDS011;47650;49.848;9.620;2024-01-06T12:05:05;3.88;;;2.70;;
61741;SDS011;47650;49.848;9.620;2024-01-06T12:07:31;4.93;;;3.28;;
61741;SDS011;47650;49.848;9.620;2024-01-06T12:10:02;6.43;;;2.95;;
61741;SDS011;47650;49.848;9.620;2024-01-06T12:12:28;7.80;;;3.17;;
61741;SDS011;47650;49.848;9.620;2024-01-06T12:14:53;6.28;;;3.50;;
61741;SDS011;47650;49.848;9.620;2024-01-06T12:17:20;8.15;;;3.30;;
61741;SDS011;47650;49.848;9.620;2024-01-06T12:19:46;7.00;;;3.45;;
61741;SDS011;47650;49.848;9.620;2024-01-06T12:22:13;6.22;;;3.17;;
61741;SDS011;47650;49.848;9.620;2024-01-06T12:24:39;6.75;;;3.58;;
61741;SDS011;47650;49.848;9.620;2024-01-06T12:27:07;7.10;;;3.30;;
61741;SDS011;47650;49.848;9.620;2024-01-06T12:29:40;5.60;;;3.00;;
61741;SDS011;47650;49.848;9.620;2024-01-06T12:32:07;7.10;;;3.08;;
61741;SDS011;47650;49.848;9.620;2024-01-06T12:34:34;5.68;;;3.30;;
61741;SDS011;47650;49.848;9.620;2024-01-06T12:37:00;6.53;;;3.00;;
61741;SDS011;47650;49.848;9.620;2024-01-06T12:39:29;7.15;;;3.30;;
61741;SDS011;47650;49.848;9.620;2024-01-06T12:41:57;5.45;;;2.65;;
61741;SDS011;47650;49.848;9.620;2024-01-06T12:44:24;6.13;;;3.22;;
61741;SDS011;47650;49.848;9.620;2024-01-06T12:46:49;6.05;;;2.75;;
61741;SDS011;47650;49.848;9.620;2024-01-06T12:49:15;4.80;;;2.95;;
61741;SDS011;47650;49.848;9.620;2024-01-06T12:51:40;6.40;;;2.78;;
61741;SDS011;47650;49.848;9.620;2024-01-06T12:54:06;7.05;;;3.15;;
61741;SDS011;47650;49.848;9.620;2024-01-06T12:56:32;4.55;;;3.03;;
61741;SDS011;47650;49.848;9.620;2024-01-06T12:58:59;4.57;;;3.03;;
61741;SDS011;47650;49.848;9.620;2024-01-06T13:01:26;7.03;;;4.55;;
61741;SDS011;47650;49.848;9.620;2024-01-06T13:03:51;6.30;;;3.72;;
61741;SDS011;47650;49.848;9.620;2024-01-06T13:06:20;4.50;;;3.00;;
61741;SDS011;47650;49.848;9.620;2024-01-06T13:08:46;9.20;;;3.17;;
61741;SDS011;47650;49.848;9.620;2024-01-06T13:11:13;8.65;;;3.47;;
61741;SDS011;47650;49.848;9.620;2024-01-06T13:13:39;7.20;;;3.35;;
61741;SDS011;47650;49.848;9.620;2024-01-06T13:16:04;6.15;;;3.10;;
61741;SDS011;47650;49.848;9.620;2024-01-06T13:18:31;6.60;;;2.80;;
61741;SDS011;47650;49.848;9.620;2024-01-06T13:20:56;6.45;;;3.03;;
61741;SDS011;47650;49.848;9.620;2024-01-06T13:23:21;6.95;;;3.13;;
61741;SDS011;47650;49.848;9.620;2024-01-06T13:25:47;4.25;;;2.58;;
61741;SDS011;47650;49.848;9.620;2024-01-06T13:28:13;10.30;;;3.40;;
61741;SDS011;47650;49.848;9.620;2024-01-06T13:30:39;5.10;;;3.20;;
61741;SDS011;47650;49.848;9.620;2024-01-06T13:33:06;7.40;;;3.30;;
61741;SDS011;47650;49.848;9.620;2024-01-06T13:35:31;6.65;;;3.17;;
61741;SDS011;47650;49.848;9.620;2024-01-06T13:37:58;6.28;;;3.83;;
61741;SDS011;47650;49.848;9.620;2024-01-06T13:40:24;5.25;;;3.22;;
61741;SDS011;47650;49.848;9.620;2024-01-06T13:42:50;9.95;;;3.25;;
61741;SDS011;47650;49.848;9.620;2024-01-06T13:45:16;6.30;;;2.95;;
61741;SDS011;47650;49.848;9.620;2024-01-06T13:47:42;4.72;;;2.90;;
61741;SDS011;47650;49.848;9.620;2024-01-06T13:50:10;7.90;;;3.47;;
61741;SDS011;47650;49.848;9.620;2024-01-06T13:52:37;11.73;;;3.75;;
61741;SDS011;47650;49.848;9.620;2024-01-06T13:55:05;6.45;;;3.00;;
61741;SDS011;47650;49.848;9.620;2024-01-06T13:57:31;5.60;;;2.97;;
61741;SDS011;47650;49.848;9.620;2024-01-06T13:59:57;3.83;;;2.38;;
61741;SDS011;47650;49.848;9.620;2024-01-06T14:02:23;5.28;;;3.03;;
61741;SDS011;47650;49.848;9.620;2024-01-06T14:04:49;4.15;;;2.88;;
61741;SDS011;47650;49.848;9.620;2024-01-06T14:07:14;4.85;;;3.03;;
61741;SDS011;47650;49.848;9.620;2024-01-06T14:09:43;6.55;;;3.03;;
61741;SDS011;47650;49.848;9.620;2024-01-06T14:12:09;5.50;;;2.92;;
61741;SDS011;47650;49.848;9.620;2024-01-06T14:14:36;8.80;;;2.97;;
61741;SDS011;47650;49.848;9.620;2024-01-06T14:17:03;7.15;;;2.92;;
61741;SDS011;47650;49.848;9.620;2024-01-06T14:19:29;7.07;;;2.88;;
61741;SDS011;47650;49.848;9.620;2024-01-06T14:21:55;4.90;;;2.80;;
61741;SDS011;47650;49.848;9.620;2024-01-06T14:24:20;4.13;;;2.60;;
61741;SDS011;47650;49.848;9.620;2024-01-06T14:26:51;5.25;;;2.47;;
61741;SDS011;47650;49.848;9.620;2024-01-06T14:29:18;5.55;;;2.67;;
61741;SDS011;47650;49.848;9.620;2024-01-06T14:31:47;7.60;;;3.35;;
61741;SDS011;47650;49.848;9.620;2024-01-06T14:34:15;5.72;;;2.70;;